Latest Weather Observations for Toowoomba

IDQ60901

Issued at 9:31 pm EST Friday 27 February 2015 (issued every 10 minutes, with the page automatically refreshed every 10 minutes)

About weather observations | Map of Brisbane area stations | Latest observations for Brisbane area | Other Formats
Station Details ID: 041529 Name: TOOWOOMBA AIRPORT Lat: -27.54 Lon: 151.91 Height: 640.9 m
Data from the previous 72 hours. | See also: Recent months at Toowoomba
Date/Time
EST
Tmp

°C
App
Tmp
°C
Dew
Point
°C
Rel
Hum
%
Delta-T

°C
Wind Press
QNH
hPa
Press
MSL
hPa
Rain
since
9 am
mm
Dir
 
Spd
km/h
Gust
km/h
Spd
kts
Gust
kts
27/09:17pm 20.4 18.4 19.1 92 0.8 E 28 37 15 20 1013.2 1009.6 -
27/09:00pm 20.5 18.1 19.0 91 1.0 E 30 35 16 19 1013.1 1009.5 0.0
27/08:30pm 21.0 18.8 18.8 87 1.4 E 28 35 15 19 1012.7 1009.1 -
27/08:00pm 21.8 20.2 18.4 81 2.2 E 24 33 13 18 1012.3 1008.6 -
27/07:30pm 21.8 20.8 18.0 79 2.4 E 20 26 11 14 1012.1 1008.4 -
27/07:00pm 21.8 20.7 17.8 78 2.5 E 20 26 11 14 1011.7 1008.1 -
27/06:30pm 22.1 20.7 17.9 77 2.7 E 22 28 12 15 1011.6 1008.0 -
27/06:00pm 22.2 20.5 18.2 78 2.6 E 24 30 13 16 1011.3 1007.7 -
27/05:30pm 22.5 21.3 18.5 78 2.6 E 22 28 12 15 1010.9 1007.2 -
27/05:00pm 23.1 21.3 17.8 72 3.4 E 24 32 13 17 1010.7 1007.0 -
27/04:30pm 22.5 21.0 18.5 78 2.6 E 24 30 13 16 1010.4 1006.7 -
27/04:00pm 22.7 22.1 18.5 77 2.7 ESE 19 24 10 13 1010.7 1007.0 -
27/03:30pm 23.1 21.5 18.4 75 3.0 ESE 24 30 13 16 1010.6 1006.9 -
27/03:00pm 24.1 23.6 18.7 72 3.5 E 19 24 10 13 1010.5 1006.8 -
27/02:30pm 24.6 24.5 18.8 70 3.8 E 17 20 9 11 1010.9 1007.2 -
27/02:00pm 25.7 27.4 19.3 67 4.2 NNE 9 17 5 9 1010.8 1007.1 -
27/01:30pm 26.0 26.1 16.5 55 6.0 WNW 11 17 6 9 1011.2 1007.5 -
27/01:00pm 25.3 25.2 15.9 56 5.9 NNE 11 13 6 7 1011.6 1008.0 -
27/12:30pm 25.8 26.7 16.6 56 5.8 SW 7 13 4 7 1012.0 1008.3 -
27/12:00pm 25.6 26.2 17.8 62 5.0 NNW 11 19 6 10 1011.8 1008.2 -
27/04:00am 16.5 14.3 16.0 97 0.3 E 22 30 12 16 1012.0 1008.3 16.8
27/03:51am 16.6 14.0 16.0 96 0.4 E 24 32 13 17 1011.7 1008.1 15.6
27/03:35am 16.5 13.8 15.5 94 0.6 E 24 30 13 16 1011.4 1007.8 10.2
27/03:30am 17.1 15.1 16.5 96 0.4 ESE 22 30 12 16 1011.6 1008.0 10.2
27/03:25am 17.3 14.9 16.5 95 0.5 ESE 24 33 13 18 1011.6 1008.0 8.8
27/03:15am 17.6 14.6 16.8 95 0.5 ESE 28 35 15 19 1011.5 1007.9 2.0
27/03:04am 17.6 15.0 15.9 90 1.0 SSE 24 39 13 21 1011.8 1008.2 0.4
27/03:00am 18.4 16.6 16.0 86 1.5 SSE 20 32 11 17 1011.8 1008.2 0.0
27/02:55am 18.7 17.5 17.4 92 0.8 SE 20 28 11 15 1011.8 1008.2 0.0
27/02:30am 18.5 14.9 17.3 93 0.7 ENE 32 41 17 22 1010.0 1006.4 0.0
27/02:00am 18.6 15.5 17.4 93 0.8 E 30 37 16 20 1010.6 1006.9 0.0
27/01:30am 18.7 15.6 17.4 92 0.8 E 30 37 16 20 1010.6 1006.9 0.0
27/01:00am 18.6 15.0 17.3 92 0.8 E 32 39 17 21 1010.6 1006.9 0.0
27/12:53am 18.7 15.6 17.5 93 0.8 E 30 35 16 19 1010.5 1006.8 0.0
27/12:30am 18.8 15.7 17.6 93 0.8 E 30 37 16 20 1010.7 1007.0 0.0
27/12:00am 19.0 16.4 17.7 92 0.8 E 28 37 15 20 1011.0 1007.3 0.0
 
Date/Time
EST
Tmp

°C
App
Tmp
°C
Dew
Point
°C
Rel
Hum
%
Delta-T

°C
Wind Press
QNH
hPa
Press
MSL
hPa
Rain
since
9 am
mm
Dir
 
Spd
km/h
Gust
km/h
Spd
kts
Gust
kts
26/11:30pm 19.2 17.5 18.0 93 0.8 E 24 32 13 17 1011.6 1008.0 0.0
26/11:00pm 19.3 16.4 18.0 92 0.8 E 30 37 16 20 1011.3 1007.7 0.0
26/10:30pm 19.5 16.7 18.2 92 0.8 E 30 33 16 18 1011.6 1008.0 0.0
26/10:00pm 19.7 16.9 18.2 91 1.0 E 30 35 16 19 1012.1 1008.4 0.0
26/09:47pm 19.8 17.0 18.1 90 1.1 E 30 35 16 19 1012.1 1008.4 0.0
26/09:30pm 19.8 16.4 18.1 90 1.1 E 33 41 18 22 1011.7 1008.1 0.0
26/09:00pm 20.2 17.4 18.1 88 1.3 E 30 39 16 21 1011.8 1008.2 0.0
26/08:30pm 20.7 17.5 18.1 85 1.7 E 32 41 17 22 1011.4 1007.8 0.0
26/08:00pm 21.3 18.1 18.1 82 2.0 E 32 37 17 20 1011.4 1007.8 0.0
26/07:30pm 22.0 18.6 17.6 76 2.8 E 32 37 17 20 1011.4 1007.8 0.0
26/07:00pm 22.7 19.6 16.5 68 3.9 E 28 35 15 19 1011.0 1007.3 0.0
26/06:30pm 23.0 19.7 16.1 65 4.3 E 28 35 15 19 1010.8 1007.1 0.0
26/06:00pm 23.9 21.0 16.2 62 4.8 E 26 37 14 20 1010.1 1006.5 0.0
26/05:30pm 24.5 22.1 16.5 61 5.0 E 24 32 13 17 1009.9 1006.3 0.0
26/05:00pm 24.9 22.8 16.3 59 5.4 E 22 30 12 16 1010.0 1006.4 0.0
26/04:30pm 26.7 25.3 18.0 59 5.6 E 22 28 12 15 1010.0 1006.4 0.0
26/04:00pm 26.2 24.7 16.7 56 6.0 ENE 20 24 11 13 1010.0 1006.4 0.0
26/03:30pm 26.7 25.7 17.5 57 5.9 E 19 28 10 15 1010.3 1006.6 0.0
26/03:00pm 25.7 24.4 16.8 58 5.7 E 19 26 10 14 1010.4 1006.7 0.0
26/02:30pm 27.0 26.4 17.5 56 6.1 ENE 17 22 9 12 1010.6 1006.9 0.0
26/02:00pm 25.9 25.9 17.3 59 5.5 ENE 13 20 7 11 1011.1 1007.4 0.0
26/01:30pm 25.3 25.3 16.2 57 5.7 ENE 11 17 6 9 1011.6 1008.0 0.0
26/01:00pm 25.5 25.2 16.4 57 5.7 E 13 20 7 11 1012.2 1008.5 0.0
26/12:30pm 25.7 26.1 16.3 56 5.9 ENE 9 22 5 12 1012.5 1008.8 0.0
26/12:00pm 24.9 25.3 16.3 59 5.4 NE 9 15 5 8 1012.8 1009.2 0.0
26/11:30am 24.8 25.1 17.8 65 4.5 ENE 13 20 7 11 1013.2 1009.6 0.0
26/11:00am 23.9 23.8 16.9 65 4.4 NE 13 17 7 9 1013.6 1009.9 0.0
26/10:30am 22.3 21.8 15.9 67 4.0 NE 13 20 7 11 1014.0 1010.3 0.0
26/10:00am 22.7 22.1 16.7 69 3.8 ENE 15 22 8 12 1014.1 1010.5 0.0
26/09:30am 22.1 20.0 16.1 69 3.7 E 22 30 12 16 1013.8 1010.1 0.0
26/09:00am 21.3 20.5 16.0 72 3.3 E 15 22 8 12 1014.0 1010.3 0.0
26/08:30am 20.3 18.6 16.3 78 2.5 E 20 28 11 15 1013.6 1009.9 0.0
26/08:03am 20.0 17.9 16.2 79 2.3 E 22 30 12 16 1013.2 1009.6 0.0
26/08:00am 20.0 18.3 16.2 79 2.3 E 20 30 11 16 1013.2 1009.6 0.0
26/07:30am 19.2 17.9 16.8 86 1.5 ENE 19 26 10 14 1013.0 1009.4 0.0
26/07:00am 18.6 18.6 17.1 91 0.9 ENE 13 20 7 11 1013.0 1009.4 0.0
26/06:30am 18.1 16.4 17.1 94 0.6 E 22 32 12 17 1012.7 1009.1 0.0
26/06:00am 17.8 15.2 16.8 94 0.6 E 26 33 14 18 1012.5 1008.8 0.0
26/05:30am 17.8 13.8 16.8 94 0.6 E 33 41 18 22 1011.8 1008.2 0.0
26/05:00am 17.8 13.4 16.7 93 0.7 E 35 44 19 24 1011.6 1008.0 0.0
26/04:30am 17.9 13.2 16.8 93 0.7 E 37 43 20 23 1011.7 1008.1 0.0
26/04:00am 18.1 13.8 16.9 93 0.7 E 35 44 19 24 1012.0 1008.3 0.0
26/03:30am 18.2 14.4 17.2 94 0.6 E 33 41 18 22 1011.8 1008.2 0.0
26/03:00am 18.3 14.2 17.3 94 0.6 E 35 43 19 23 1012.1 1008.4 0.0
26/02:30am 18.3 15.2 17.5 95 0.5 E 30 39 16 21 1012.6 1008.9 0.0
26/02:00am 18.3 14.8 17.5 95 0.5 E 32 39 17 21 1012.9 1009.3 0.0
26/01:30am 18.4 14.9 17.4 94 0.6 E 32 43 17 23 1013.3 1009.7 0.0
26/01:00am 18.6 14.5 17.3 92 0.8 E 35 44 19 24 1013.2 1009.6 0.0
26/12:33am 18.7 15.2 17.5 93 0.8 E 32 39 17 21 1013.9 1010.2 0.0
26/12:30am 18.7 15.2 17.5 93 0.8 E 32 39 17 21 1013.8 1010.1 0.0
26/12:00am 19.0 15.2 17.3 90 1.1 E 33 44 18 24 1014.2 1010.6 0.0
 
Date/Time
EST
Tmp

°C
App
Tmp
°C
Dew
Point
°C
Rel
Hum
%
Delta-T

°C
Wind Press
QNH
hPa
Press
MSL
hPa
Rain
since
9 am
mm
Dir
 
Spd
km/h
Gust
km/h
Spd
kts
Gust
kts
25/11:30pm 19.1 16.0 17.6 91 0.9 E 30 39 16 21 1014.3 1010.7 0.0
25/11:03pm 19.3 16.2 17.4 89 1.2 E 30 39 16 21 1014.6 1011.0 0.0
25/11:00pm 19.2 16.0 17.3 89 1.2 E 30 39 16 21 1014.7 1011.1 0.0
25/10:30pm 19.4 15.9 17.4 88 1.3 E 32 41 17 22 1014.8 1011.2 0.0
25/10:00pm 19.6 16.0 17.2 86 1.5 E 32 41 17 22 1014.7 1011.1 0.0
25/09:30pm 19.8 17.1 17.6 87 1.4 E 28 39 15 21 1014.8 1011.2 0.0
25/09:00pm 20.1 17.0 17.5 85 1.6 E 30 39 16 21 1014.7 1011.1 0.0
25/08:37pm 20.3 16.9 17.7 85 1.6 E 32 41 17 22 1014.6 1011.0 0.0
25/08:30pm 20.4 16.9 17.8 85 1.6 E 33 43 18 23 1014.5 1010.9 0.0
25/08:00pm 21.0 18.2 18.2 84 1.8 E 30 39 16 21 1014.5 1010.9 0.0
25/07:45pm 21.2 18.4 18.2 83 1.9 E 30 41 16 22 1014.3 1010.7 0.0
25/07:30pm 21.4 19.0 18.2 82 2.0 E 28 37 15 20 1014.1 1010.5 0.0
25/07:00pm 22.2 20.2 18.2 78 2.6 E 26 33 14 18 1014.0 1010.3 0.0
25/06:30pm 23.3 21.9 17.1 68 3.9 E 20 28 11 15 1013.3 1009.7 0.0
25/06:00pm 24.3 22.2 16.3 61 5.0 E 22 30 12 16 1013.0 1009.4 0.0
25/05:30pm 25.3 22.9 16.4 57 5.6 E 24 33 13 18 1012.7 1009.1 0.0
25/05:00pm 25.4 22.6 16.3 57 5.7 E 26 35 14 19 1012.7 1009.1 0.0
25/04:30pm 25.8 23.4 16.4 56 5.9 E 24 33 13 18 1012.9 1009.3 0.0
25/04:00pm 26.4 23.2 16.3 53 6.4 E 28 32 15 17 1012.9 1009.3 0.0
25/03:30pm 26.7 24.9 16.9 55 6.3 E 22 32 12 17 1013.0 1009.4 0.0
25/03:00pm 25.8 23.8 16.4 56 5.9 ENE 22 30 12 16 1013.1 1009.5 0.0
25/02:30pm 26.9 25.7 17.4 56 6.1 E 20 28 11 15 1013.4 1009.8 0.0
25/02:00pm 26.2 25.0 17.0 57 5.9 E 19 32 10 17 1013.9 1010.2 0.0
25/01:30pm 25.8 24.4 16.9 58 5.7 E 20 28 11 15 1014.3 1010.7 0.0
25/01:00pm 25.1 23.3 17.0 60 5.2 E 22 32 12 17 1014.7 1011.1 0.0
25/12:30pm 24.8 23.2 16.5 60 5.2 E 20 30 11 16 1014.9 1011.3 0.0
25/12:00pm 25.1 23.5 16.5 59 5.4 E 20 32 11 17 1015.4 1011.7 0.0
25/11:30am 24.4 22.4 16.4 61 5.0 E 22 33 12 18 1015.6 1012.0 0.0
25/11:00am 24.6 23.1 17.6 65 4.5 E 22 33 12 18 1015.9 1012.3 0.0
25/10:30am 24.0 21.6 16.3 62 4.8 E 24 35 13 19 1016.1 1012.5 0.0
25/10:00am 23.4 20.4 16.7 66 4.2 E 28 41 15 22 1016.1 1012.5 0.0
25/09:30am 23.0 19.7 17.0 69 3.8 E 30 41 16 22 1016.0 1012.4 0.0
25/09:00am 22.4 18.5 16.4 69 3.7 E 32 39 17 21 1015.8 1012.2 0.0
25/08:30am 21.7 18.0 16.9 74 3.0 E 32 39 17 21 1015.7 1012.1 0.0
25/08:00am 20.8 16.8 16.6 77 2.6 E 33 41 18 22 1015.6 1012.0 0.0
25/07:30am 20.6 18.1 17.0 80 2.3 E 26 32 14 17 1015.3 1011.6 0.0
25/07:00am 19.3 16.8 17.1 87 1.4 ESE 26 32 14 17 1015.1 1011.5 0.0
25/06:30am 18.5 16.3 17.0 91 0.9 E 24 32 13 17 1014.9 1011.3 0.0
25/06:00am 17.9 15.7 16.8 93 0.7 E 24 30 13 16 1014.6 1011.0 0.0
25/05:30am 17.7 15.8 16.7 94 0.6 E 22 28 12 15 1014.5 1010.9 0.0
25/05:10am 17.8 15.6 16.8 94 0.6 E 24 32 13 17 1014.2 1010.6 0.0
25/05:00am 17.9 15.3 16.9 94 0.6 E 26 33 14 18 1014.2 1010.6 0.0
25/04:57am 18.0 15.5 17.0 94 0.6 E 26 33 14 18 1014.2 1010.6 0.0
25/04:30am 18.0 15.4 16.9 93 0.7 E 26 32 14 17 1014.0 1010.3 0.0
25/04:00am 18.1 15.5 16.9 93 0.7 E 26 33 14 18 1013.8 1010.1 0.0
25/03:30am 18.2 15.2 16.9 92 0.8 E 28 37 15 20 1013.7 1010.0 0.0
25/03:00am 18.3 15.3 16.8 91 0.9 E 28 33 15 18 1013.6 1009.9 0.0
25/02:30am 18.2 16.2 16.5 90 1.0 E 22 28 12 15 1013.8 1010.1 0.0
25/02:00am 18.4 16.1 16.6 89 1.1 E 24 32 13 17 1014.1 1010.5 0.0
25/01:30am 18.7 15.7 16.8 89 1.2 ESE 28 35 15 19 1014.3 1010.7 0.0
25/01:00am 18.5 15.5 16.8 90 1.1 E 28 35 15 19 1014.5 1010.9 0.0
25/12:30am 18.6 16.0 16.9 90 1.1 E 26 32 14 17 1014.4 1010.8 0.0
25/12:00am 18.9 16.0 17.0 89 1.2 E 28 39 15 21 1014.7 1011.1 0.0
 
Date/Time
EST
Tmp

°C
App
Tmp
°C
Dew
Point
°C
Rel
Hum
%
Delta-T

°C
Wind Press
QNH
hPa
Press
MSL
hPa
Rain
since
9 am
mm
Dir
 
Spd
km/h
Gust
km/h
Spd
kts
Gust
kts
24/11:30pm 19.1 16.1 16.9 87 1.4 E 28 37 15 20 1015.1 1011.5 0.0
24/11:00pm 19.4 16.6 17.4 88 1.3 E 28 37 15 20 1015.1 1011.5 0.0
24/10:30pm 19.6 16.5 17.6 88 1.3 E 30 37 16 20 1015.3 1011.6 0.0
24/10:00pm 20.0 17.0 17.8 87 1.4 E 30 39 16 21 1015.8 1012.2 0.0

Latest Capital City Observations: Canberra | Sydney | Melbourne | Brisbane | Adelaide | Perth | Hobart | Darwin

Other Formats:

Comma delimited format used in spreadsheet applications
http://www.bom.gov.au/fwo/IDQ60901/IDQ60901.95551.axf

JavaScript Object Notation format (JSON) in row-major order
http://www.bom.gov.au/fwo/IDQ60901/IDQ60901.95551.json